createdAt,value
2019-05-05T00:02:04.887Z,90.50
2019-05-05T00:04:45.520Z,90.40
2019-05-05T00:07:15.824Z,90.20
2019-05-05T00:09:44.995Z,90.30
2019-05-05T00:12:21.247Z,90.00
2019-05-05T00:14:51.653Z,90.60
2019-05-05T00:17:21.723Z,90.40
2019-05-05T00:19:50.254Z,90.60
2019-05-05T00:22:19.103Z,90.70
2019-05-05T00:24:47.618Z,90.60
2019-05-05T00:27:16.075Z,90.60
2019-05-05T00:29:45.347Z,90.70
2019-05-05T00:32:15.264Z,90.60
2019-05-05T00:34:44.603Z,90.90
2019-05-05T00:37:15.231Z,90.70
2019-05-05T00:39:45.169Z,91.10
2019-05-05T00:42:15.407Z,91.30
2019-05-05T00:44:44.788Z,91.60
2019-05-05T00:47:25.067Z,91.10
2019-05-05T00:49:56.151Z,91.60
2019-05-05T00:52:24.583Z,91.50
2019-05-05T00:54:55.446Z,91.20
2019-05-05T00:57:24.318Z,91.20
2019-05-05T00:59:54.394Z,91.10
2019-05-05T01:02:27.606Z,90.90
2019-05-05T01:05:00.680Z,90.90
2019-05-05T01:07:29.182Z,90.50
2019-05-05T01:09:57.777Z,90.60
2019-05-05T01:12:26.799Z,90.60
2019-05-05T01:14:55.401Z,90.50
2019-05-05T01:17:25.330Z,90.30
2019-05-05T01:20:03.412Z,90.50
2019-05-05T01:22:25.086Z,90.70
2019-05-05T01:24:55.457Z,90.90
2019-05-05T01:27:25.465Z,91.10
2019-05-05T01:29:54.674Z,91.10
2019-05-05T01:32:28.203Z,91.00
2019-05-05T01:34:57.007Z,91.00
2019-05-05T01:37:29.881Z,91.10
2019-05-05T01:39:59.254Z,91.20
2019-05-05T01:42:27.972Z,91.10
2019-05-05T01:44:56.475Z,91.10
2019-05-05T01:47:25.461Z,91.10
2019-05-05T01:49:54.635Z,91.20
2019-05-05T01:52:25.262Z,91.00
2019-05-05T01:54:54.808Z,91.00
2019-05-05T01:57:25.205Z,91.10
2019-05-05T01:59:55.210Z,91.20
2019-05-05T02:02:25.104Z,91.30
2019-05-05T02:04:55.347Z,91.20
2019-05-05T02:07:25.031Z,91.00
2019-05-05T02:09:55.345Z,91.20
2019-05-05T02:12:24.652Z,91.30
2019-05-05T02:14:55.111Z,91.40
2019-05-05T02:17:24.721Z,91.40
2019-05-05T02:19:54.941Z,91.40
2019-05-05T02:22:25.228Z,91.20
2019-05-05T02:24:55.089Z,91.30
2019-05-05T02:27:25.168Z,91.50
2019-05-05T02:29:55.709Z,91.50
2019-05-05T02:32:26.024Z,91.40
2019-05-05T02:34:59.288Z,91.50
2019-05-05T02:37:27.856Z,91.50
2019-05-05T02:40:02.471Z,91.50
2019-05-05T02:42:27.608Z,91.50
2019-05-05T02:44:59.235Z,91.70
2019-05-05T02:47:38.325Z,91.70
2019-05-05T02:50:07.869Z,91.70
2019-05-05T02:52:39.310Z,91.70
2019-05-05T02:55:09.151Z,91.70
2019-05-05T02:57:37.725Z,91.80
2019-05-05T03:00:20.986Z,91.70
2019-05-05T03:02:49.479Z,92.00
2019-05-05T03:05:18.047Z,91.90
2019-05-05T03:07:47.054Z,92.10
2019-05-05T03:10:15.727Z,92.00
2019-05-05T03:12:45.087Z,91.90
2019-05-05T03:15:28.727Z,92.00
2019-05-05T03:17:57.312Z,91.90
2019-05-05T03:20:25.891Z,92.10
2019-05-05T03:22:54.407Z,92.10
2019-05-05T03:25:24.162Z,92.20
2019-05-05T03:27:53.764Z,92.20
2019-05-05T03:30:25.784Z,92.20
2019-05-05T03:32:55.697Z,92.20
2019-05-05T03:35:24.087Z,92.20
2019-05-05T03:37:54.478Z,92.20
2019-05-05T03:40:24.848Z,91.90
2019-05-05T03:42:57.918Z,92.20
2019-05-05T03:45:37.693Z,92.10
2019-05-05T03:48:06.364Z,92.30
2019-05-05T03:50:35.549Z,92.20
2019-05-05T03:53:04.917Z,92.20
2019-05-05T03:55:34.619Z,92.20
2019-05-05T03:58:04.090Z,92.10
2019-05-05T04:00:54.910Z,92.10
2019-05-05T04:03:23.745Z,92.10
2019-05-05T04:05:56.755Z,91.90
2019-05-05T04:08:24.767Z,91.80
2019-05-05T04:10:54.670Z,92.00
2019-05-05T04:13:24.255Z,91.70
2019-05-05T04:15:54.486Z,91.60
2019-05-05T04:18:24.564Z,91.90
2019-05-05T04:20:53.500Z,91.40
2019-05-05T04:23:21.986Z,91.40
2019-05-05T04:25:50.555Z,91.40
2019-05-05T04:28:18.996Z,91.40
2019-05-05T04:30:47.449Z,91.50
2019-05-05T04:33:15.878Z,91.40
2019-05-05T04:35:44.551Z,91.20
2019-05-05T04:38:13.870Z,91.30
2019-05-05T04:40:43.532Z,90.90
2019-05-05T04:43:14.269Z,90.90
2019-05-05T04:45:43.587Z,90.70
2019-05-05T04:48:13.921Z,91.00
2019-05-05T04:50:47.352Z,90.70
2019-05-05T04:53:24.114Z,90.80
2019-05-05T04:55:53.618Z,90.70
2019-05-05T04:58:24.150Z,90.50
2019-05-05T05:00:54.548Z,90.50
2019-05-05T05:03:39.806Z,90.60
2019-05-05T05:06:15.882Z,90.40
2019-05-05T05:08:44.537Z,90.30
2019-05-05T05:11:14.163Z,90.40
2019-05-05T05:13:44.021Z,90.50
2019-05-05T05:16:13.887Z,90.30
2019-05-05T05:18:44.570Z,90.40
2019-05-05T05:21:14.498Z,90.50
2019-05-05T05:23:44.360Z,90.20
2019-05-05T05:26:13.936Z,89.60
2019-05-05T05:28:44.603Z,89.70
2019-05-05T05:31:14.060Z,89.30
2019-05-05T05:33:43.679Z,89.60
2019-05-05T05:36:14.275Z,89.50
2019-05-05T05:38:44.219Z,88.40
2019-05-05T05:41:14.223Z,86.80
2019-05-05T05:43:56.629Z,86.40
2019-05-05T05:46:43.808Z,87.30
2019-05-05T05:49:19.259Z,86.80
2019-05-05T05:51:47.703Z,85.10
2019-05-05T05:54:19.045Z,84.90
2019-05-05T05:56:47.823Z,84.50
2019-05-05T05:59:16.715Z,84.10
2019-05-05T06:01:45.219Z,84.00
2019-05-05T06:04:14.510Z,82.50
2019-05-05T06:06:43.891Z,83.40
2019-05-05T06:09:14.669Z,83.80
2019-05-05T06:11:43.675Z,83.20
2019-05-05T06:14:14.432Z,84.50
2019-05-05T06:16:44.492Z,83.60
2019-05-05T06:19:14.062Z,83.40
2019-05-05T06:21:43.991Z,82.80
2019-05-05T06:24:13.631Z,83.30
2019-05-05T06:26:44.389Z,81.90
2019-05-05T06:29:14.432Z,81.70
2019-05-05T06:31:44.545Z,81.90
2019-05-05T06:34:13.974Z,82.50
2019-05-05T06:36:44.484Z,82.20
2019-05-05T06:39:13.640Z,80.70
2019-05-05T06:41:49.774Z,81.30
2019-05-05T06:44:24.713Z,81.20
2019-05-05T06:46:57.634Z,81.60
2019-05-05T06:49:26.165Z,82.30
2019-05-05T06:51:54.826Z,81.80
2019-05-05T06:54:24.232Z,81.80
2019-05-05T06:56:53.861Z,82.30
2019-05-05T06:59:24.383Z,81.40
2019-05-05T07:01:53.612Z,80.90
2019-05-05T07:04:24.413Z,81.10
2019-05-05T07:06:56.704Z,80.00
2019-05-05T07:09:24.483Z,78.30
2019-05-05T07:11:54.101Z,80.10
2019-05-05T07:14:23.640Z,79.40
2019-05-05T07:16:54.325Z,79.20
2019-05-05T07:19:23.953Z,78.80
2019-05-05T07:21:53.828Z,78.60
2019-05-05T07:24:23.890Z,78.40
2019-05-05T07:26:54.105Z,78.40
2019-05-05T07:29:23.953Z,77.00
2019-05-05T07:31:54.526Z,77.60
2019-05-05T07:34:24.277Z,75.00
2019-05-05T07:36:54.843Z,74.30
2019-05-05T07:39:23.811Z,74.20
2019-05-05T07:41:54.193Z,75.70
2019-05-05T07:44:29.072Z,74.90
2019-05-05T07:46:54.337Z,73.00
2019-05-05T07:49:24.885Z,74.90
2019-05-05T07:51:54.758Z,72.70
2019-05-05T07:54:23.806Z,73.40
2019-05-05T07:56:53.991Z,71.80
2019-05-05T07:59:23.834Z,73.20
2019-05-05T08:01:54.605Z,72.30
2019-05-05T08:04:24.270Z,72.90
2019-05-05T08:06:53.849Z,73.10
2019-05-05T08:09:24.687Z,70.90
2019-05-05T08:11:54.275Z,72.20
2019-05-05T08:14:24.569Z,72.00
2019-05-05T08:16:54.856Z,72.20
2019-05-05T08:19:37.047Z,72.20
2019-05-05T08:22:05.687Z,72.20
2019-05-05T08:24:41.569Z,71.70
2019-05-05T08:27:14.336Z,70.80
2019-05-05T08:29:43.954Z,69.80
2019-05-05T08:32:26.321Z,71.20
2019-05-05T08:35:00.366Z,70.10
2019-05-05T08:37:25.363Z,70.30
2019-05-05T08:39:54.074Z,67.00
2019-05-05T08:42:24.669Z,66.10
2019-05-05T08:44:53.861Z,67.60
2019-05-05T08:47:24.454Z,70.00
2019-05-05T08:49:58.671Z,68.00
2019-05-05T08:52:27.839Z,62.70
2019-05-05T08:54:56.276Z,64.90
2019-05-05T08:57:24.707Z,64.20
2019-05-05T08:59:54.597Z,65.70
2019-05-05T09:02:23.904Z,64.00
2019-05-05T09:04:53.788Z,64.90
2019-05-05T09:07:24.170Z,63.60
2019-05-05T09:09:54.491Z,63.10
2019-05-05T09:12:24.295Z,65.20
2019-05-05T09:14:53.871Z,63.90
2019-05-05T09:17:24.380Z,62.00
2019-05-05T09:19:53.730Z,63.60
2019-05-05T09:22:24.405Z,64.10
2019-05-05T09:25:04.320Z,63.90
2019-05-05T09:27:40.116Z,63.90
2019-05-05T09:30:10.918Z,64.70
2019-05-05T09:32:40.916Z,61.60
2019-05-05T09:35:09.792Z,62.40
2019-05-05T09:37:37.432Z,61.20
2019-05-05T09:40:09.682Z,60.60
2019-05-05T09:42:38.495Z,59.40
2019-05-05T09:45:07.933Z,61.30
2019-05-05T09:47:36.459Z,57.90
2019-05-05T09:50:06.703Z,58.00
2019-05-05T09:52:35.128Z,57.60
2019-05-05T09:55:06.635Z,56.70
2019-05-05T09:57:36.083Z,57.10
2019-05-05T10:00:08.196Z,55.90
2019-05-05T10:06:17.703Z,53.30
2019-05-05T10:08:46.139Z,53.80
2019-05-05T10:11:16.450Z,55.50
2019-05-05T10:13:45.154Z,53.30
2019-05-05T10:16:14.416Z,54.70
2019-05-05T10:18:44.678Z,53.90
2019-05-05T10:21:13.864Z,53.00
2019-05-05T10:23:44.127Z,54.50
2019-05-05T10:26:14.948Z,53.10
2019-05-05T10:28:44.460Z,52.80
2019-05-05T10:31:13.823Z,52.80
2019-05-05T10:33:46.850Z,52.30
2019-05-05T10:36:15.272Z,53.10
2019-05-05T10:38:45.404Z,52.60
2019-05-05T10:41:13.954Z,51.80
2019-05-05T10:43:43.697Z,51.90
2019-05-05T10:46:14.229Z,53.00
2019-05-05T10:48:44.456Z,54.00
2019-05-05T10:51:12.791Z,53.30
2019-05-05T10:53:41.213Z,54.30
2019-05-05T10:56:09.742Z,54.80
2019-05-05T10:58:38.512Z,56.10
2019-05-05T11:01:07.025Z,53.70
2019-05-05T11:03:35.614Z,52.60
2019-05-05T11:06:04.643Z,54.10
2019-05-05T11:08:34.770Z,51.20
2019-05-05T11:11:04.212Z,47.70
2019-05-05T11:13:34.478Z,52.00
2019-05-05T11:16:03.987Z,52.40
2019-05-05T11:18:34.609Z,52.30
2019-05-05T11:21:04.058Z,50.50
2019-05-05T11:23:34.644Z,51.00
2019-05-05T11:26:03.410Z,52.60
2019-05-05T11:28:33.993Z,53.80
2019-05-05T11:31:04.461Z,50.70
2019-05-05T11:33:34.751Z,51.30
2019-05-05T11:36:07.825Z,53.30
2019-05-05T11:38:36.156Z,51.60
2019-05-05T11:41:05.000Z,52.60
2019-05-05T11:43:33.911Z,52.50
2019-05-05T11:46:02.471Z,52.00
2019-05-05T11:48:34.811Z,50.40
2019-05-05T11:51:04.547Z,52.60
2019-05-05T11:53:33.961Z,50.60
2019-05-05T11:56:04.204Z,53.00
2019-05-05T11:58:34.103Z,51.60
2019-05-05T12:01:03.721Z,51.10
2019-05-05T12:03:33.957Z,49.10
2019-05-05T12:06:03.926Z,49.50
2019-05-05T12:08:34.491Z,49.50
2019-05-05T12:11:04.827Z,50.70
2019-05-05T12:13:33.947Z,49.80
2019-05-05T12:16:04.620Z,51.40
2019-05-05T12:18:34.269Z,52.20
2019-05-05T12:21:05.155Z,51.70
2019-05-05T12:23:34.148Z,51.40
2019-05-05T12:26:04.791Z,51.00
2019-05-05T12:28:37.706Z,49.30
2019-05-05T12:31:14.117Z,48.70
2019-05-05T12:33:44.190Z,49.60
2019-05-05T12:36:14.925Z,50.30
2019-05-05T12:38:43.981Z,50.30
2019-05-05T12:41:14.761Z,50.20
2019-05-05T12:43:44.709Z,49.40
2019-05-05T12:46:14.845Z,51.70
2019-05-05T12:48:44.960Z,49.30
2019-05-05T12:51:14.693Z,49.50
2019-05-05T12:53:43.355Z,49.10
2019-05-05T12:56:11.876Z,51.10
2019-05-05T12:58:41.223Z,49.90
2019-05-05T13:01:14.493Z,49.00
2019-05-05T13:03:43.795Z,47.70
2019-05-05T13:06:14.588Z,48.30
2019-05-05T13:08:44.521Z,50.00
2019-05-05T13:11:13.761Z,49.30
2019-05-05T13:13:43.975Z,48.10
2019-05-05T13:16:13.626Z,49.20
2019-05-05T13:18:42.547Z,48.40
2019-05-05T13:21:30.219Z,48.10
2019-05-05T13:24:00.311Z,47.30
2019-05-05T13:26:46.540Z,48.80
2019-05-05T13:29:15.302Z,49.70
2019-05-05T13:31:45.341Z,48.70
2019-05-05T13:34:13.827Z,47.10
2019-05-05T13:36:44.172Z,47.60
2019-05-05T13:39:14.390Z,46.90
2019-05-05T13:41:44.835Z,46.80
2019-05-05T13:44:19.127Z,45.80
2019-05-05T13:46:47.840Z,47.10
2019-05-05T13:49:17.913Z,48.70
2019-05-05T13:51:46.413Z,49.10
2019-05-05T13:54:16.198Z,49.20
2019-05-05T13:56:44.747Z,47.20
2019-05-05T13:59:14.084Z,47.00
2019-05-05T14:01:44.760Z,46.50
2019-05-05T14:04:13.122Z,45.70
2019-05-05T14:06:41.653Z,46.40
2019-05-05T14:09:10.811Z,48.80
2019-05-05T14:11:39.434Z,48.70
2019-05-05T14:14:07.851Z,49.00
2019-05-05T14:16:36.944Z,50.30
2019-05-05T14:19:05.527Z,49.80
2019-05-05T14:21:34.078Z,50.30
2019-05-05T14:24:04.322Z,50.90
2019-05-05T14:26:35.198Z,48.90
2019-05-05T14:29:04.283Z,47.10
2019-05-05T14:36:44.151Z,45.90
2019-05-05T14:39:14.972Z,47.10
2019-05-05T14:41:44.573Z,46.40
2019-05-05T14:44:13.496Z,45.50
2019-05-05T14:46:42.124Z,47.20
2019-05-05T14:49:10.620Z,47.10
2019-05-05T14:51:40.055Z,47.10
2019-05-05T14:54:10.800Z,48.00
2019-05-05T14:56:39.023Z,47.50
2019-05-05T14:59:09.067Z,46.20
2019-05-05T15:01:37.504Z,44.30
2019-05-05T15:04:06.268Z,45.40
2019-05-05T15:06:39.153Z,45.40
2019-05-05T15:09:09.867Z,44.20
2019-05-05T15:11:49.367Z,43.50
2019-05-05T15:14:17.868Z,43.90
2019-05-05T15:16:46.297Z,45.30
2019-05-05T15:19:14.834Z,46.00
2019-05-05T15:21:44.317Z,46.50
2019-05-05T15:24:13.821Z,48.10
2019-05-05T15:26:50.626Z,46.40
2019-05-05T15:29:12.903Z,46.90
2019-05-05T15:31:43.544Z,46.10
2019-05-05T15:34:12.258Z,46.60
2019-05-05T15:36:41.103Z,45.30
2019-05-05T15:39:09.711Z,44.10
2019-05-05T15:41:38.247Z,44.70
2019-05-05T15:44:07.860Z,45.20
2019-05-05T15:49:05.457Z,47.60
2019-05-05T15:54:03.844Z,48.40
2019-05-05T15:56:34.060Z,48.60
2019-05-05T15:59:02.840Z,48.30
2019-05-05T16:01:31.375Z,48.90
2019-05-05T16:03:59.872Z,47.40
2019-05-05T16:06:28.584Z,47.40
2019-05-05T16:08:57.044Z,47.90
2019-05-05T16:11:26.980Z,47.00
2019-05-05T16:13:55.654Z,47.10
2019-05-05T16:16:30.202Z,46.50
2019-05-05T16:19:05.633Z,46.40
2019-05-05T16:21:38.707Z,46.60
2019-05-05T16:24:08.924Z,46.70
2019-05-05T16:26:37.500Z,47.10
2019-05-05T16:29:06.333Z,47.90
2019-05-05T16:31:34.830Z,45.80
2019-05-05T16:34:03.853Z,47.40
2019-05-05T16:36:34.036Z,48.20
2019-05-05T16:39:02.779Z,46.30
2019-05-05T16:41:31.506Z,46.90
2019-05-05T16:44:00.367Z,47.40
2019-05-05T16:51:27.525Z,47.10
2019-05-05T16:53:57.713Z,46.80
2019-05-05T16:56:25.484Z,45.20
2019-05-05T16:58:53.907Z,47.10
2019-05-05T17:01:22.663Z,47.20
2019-05-05T17:03:51.511Z,46.20
2019-05-05T17:06:20.480Z,46.80
2019-05-05T17:08:49.328Z,46.30
2019-05-05T17:11:18.199Z,46.90
2019-05-05T17:13:48.556Z,47.10
2019-05-05T17:19:06.893Z,47.30
2019-05-05T17:21:53.642Z,47.50
2019-05-05T17:24:23.985Z,48.40
2019-05-05T17:26:54.890Z,49.50
2019-05-05T17:29:23.526Z,48.40
2019-05-05T17:31:53.818Z,47.80
2019-05-05T17:34:24.468Z,47.90
2019-05-05T17:36:53.597Z,49.00
2019-05-05T17:39:24.003Z,49.40
2019-05-05T17:41:54.304Z,49.20
2019-05-05T17:44:27.353Z,50.20
2019-05-05T17:47:05.722Z,50.70
2019-05-05T17:49:54.128Z,47.30
2019-05-05T17:52:36.536Z,47.10
2019-05-05T17:55:24.280Z,47.60
2019-05-05T17:58:01.534Z,48.20
2019-05-05T18:00:24.358Z,49.10
2019-05-05T18:02:53.580Z,48.00
2019-05-05T18:05:38.910Z,48.60
2019-05-05T18:08:07.405Z,48.80
2019-05-05T18:10:37.488Z,49.30
2019-05-05T18:13:08.116Z,49.80
2019-05-05T18:15:49.492Z,50.20
2019-05-05T18:18:18.364Z,50.30
2019-05-05T18:20:47.121Z,50.80
2019-05-05T18:23:15.636Z,50.70
2019-05-05T18:25:44.234Z,51.00
2019-05-05T18:28:19.481Z,51.50
2019-05-05T18:30:44.392Z,51.50
2019-05-05T18:33:13.679Z,51.70
2019-05-05T18:35:44.268Z,52.40
2019-05-05T18:38:13.762Z,53.00
2019-05-05T18:40:43.431Z,53.20
2019-05-05T18:43:13.802Z,53.00
2019-05-05T18:45:44.185Z,53.40
2019-05-05T18:48:13.961Z,53.90
2019-05-05T18:50:42.851Z,53.80
2019-05-05T18:53:11.299Z,54.40
2019-05-05T18:55:40.104Z,53.90
2019-05-05T18:58:08.567Z,52.80
2019-05-05T19:00:48.283Z,53.50
2019-05-05T19:03:20.720Z,52.70
2019-05-05T19:05:56.921Z,53.10
2019-05-05T19:08:27.003Z,53.30
2019-05-05T19:10:55.513Z,53.60
2019-05-05T19:13:24.558Z,53.30
2019-05-05T19:15:53.900Z,53.90
2019-05-05T19:18:24.320Z,53.80
2019-05-05T19:21:00.411Z,54.20
2019-05-05T19:23:29.186Z,53.90
2019-05-05T19:25:57.691Z,54.30
2019-05-05T19:28:41.039Z,54.10
2019-05-05T19:30:57.667Z,54.30
2019-05-05T19:33:26.167Z,54.80
2019-05-05T19:35:54.705Z,55.20
2019-05-05T19:38:23.696Z,55.10
2019-05-05T19:40:55.993Z,55.10
2019-05-05T19:43:24.447Z,55.50
2019-05-05T19:45:55.088Z,55.90
2019-05-05T19:48:24.469Z,56.20
2019-05-05T19:50:54.696Z,56.10
2019-05-05T19:53:24.500Z,56.60
2019-05-05T19:55:56.743Z,57.10
2019-05-05T20:00:58.436Z,58.50
2019-05-05T20:03:27.048Z,59.10
2019-05-05T20:05:55.681Z,59.70
2019-05-05T20:08:24.233Z,59.80
2019-05-05T20:10:54.178Z,59.90
2019-05-05T20:15:53.757Z,60.60
2019-05-05T20:18:22.335Z,61.00
2019-05-05T20:21:03.126Z,61.60
2019-05-05T20:23:22.008Z,61.40
2019-05-05T20:25:50.776Z,61.90
2019-05-05T20:28:19.221Z,62.40
2019-05-05T20:30:47.737Z,62.40
2019-05-05T20:33:26.460Z,61.70
2019-05-05T20:35:57.896Z,62.50
2019-05-05T20:38:37.472Z,60.90
2019-05-05T20:41:10.493Z,61.50
2019-05-05T20:43:39.215Z,62.20
2019-05-05T20:46:09.376Z,61.10
2019-05-05T20:48:41.013Z,61.10
2019-05-05T20:51:08.167Z,61.80
2019-05-05T20:53:37.863Z,61.70
2019-05-05T20:56:06.443Z,61.80
2019-05-05T20:58:34.938Z,62.50
2019-05-05T21:01:04.530Z,61.60
2019-05-05T21:03:34.722Z,61.40
2019-05-05T21:06:04.446Z,61.10
2019-05-05T21:08:34.755Z,61.80
2019-05-05T21:11:04.370Z,61.90
2019-05-05T21:13:34.143Z,61.90
2019-05-05T21:16:03.011Z,61.00
2019-05-05T21:18:31.565Z,60.80
2019-05-05T21:21:01.916Z,60.80
2019-05-05T21:23:34.117Z,62.20
2019-05-05T21:26:04.446Z,61.50
2019-05-05T21:28:33.730Z,61.40
2019-05-05T21:31:02.183Z,60.90
2019-05-05T21:33:30.780Z,61.50
2019-05-05T21:35:59.329Z,61.60
2019-05-05T21:38:27.772Z,62.30
2019-05-05T21:40:56.208Z,62.10
2019-05-05T21:43:24.991Z,61.40
2019-05-05T21:45:53.835Z,61.80
2019-05-05T21:50:56.965Z,62.40
2019-05-05T21:53:29.926Z,63.00
2019-05-05T21:55:59.223Z,63.60
2019-05-05T21:58:29.388Z,63.70
2019-05-05T22:01:04.475Z,63.50
2019-05-05T22:03:39.357Z,64.10
2019-05-05T22:06:07.940Z,64.20
2019-05-05T22:08:36.364Z,64.40
2019-05-05T22:11:05.419Z,63.70
2019-05-05T22:13:36.196Z,64.30
2019-05-05T22:16:04.286Z,64.40
2019-05-05T22:18:33.069Z,62.30
2019-05-05T22:21:04.454Z,62.10
2019-05-05T22:23:34.010Z,62.70
2019-05-05T22:26:04.232Z,62.60
2019-05-05T22:28:34.022Z,62.50
2019-05-05T22:31:04.751Z,62.60
2019-05-05T22:33:33.995Z,62.80
2019-05-05T22:36:04.373Z,62.60
2019-05-05T22:38:33.924Z,62.70
2019-05-05T22:41:02.659Z,62.70
2019-05-05T22:43:31.328Z,62.60
2019-05-05T22:46:00.116Z,63.20
2019-05-05T22:48:28.654Z,63.40
2019-05-05T22:50:57.096Z,64.10
2019-05-05T22:53:25.528Z,63.80
2019-05-05T22:55:54.127Z,64.50
2019-05-05T22:58:24.008Z,64.50
2019-05-05T23:00:54.687Z,65.10
2019-05-05T23:03:30.320Z,65.60
2019-05-05T23:06:04.331Z,66.10
2019-05-05T23:08:34.894Z,65.30
2019-05-05T23:11:04.062Z,65.90
2019-05-05T23:13:34.163Z,65.70
2019-05-05T23:16:10.441Z,66.30
2019-05-05T23:18:39.676Z,66.20
2019-05-05T23:21:18.567Z,66.90
2019-05-05T23:24:00.303Z,66.70
2019-05-05T23:26:36.035Z,66.70
2019-05-05T23:29:04.971Z,67.00
2019-05-05T23:31:33.943Z,67.40
2019-05-05T23:34:03.976Z,67.00
2019-05-05T23:36:33.943Z,68.40
2019-05-05T23:39:04.414Z,69.00
2019-05-05T23:41:34.866Z,68.40
2019-05-05T23:44:04.522Z,68.40
2019-05-05T23:46:34.832Z,68.90
2019-05-05T23:49:04.269Z,68.70
2019-05-05T23:51:34.668Z,67.80
2019-05-05T23:54:04.271Z,67.60
2019-05-05T23:56:34.992Z,68.20
2019-05-05T23:59:04.268Z,69.00
